Terminal Aerodrome Forecast
Issued by NWS

Home | Current Version | Previous Version | Text Only | Print | Product List | Glossary On
Versions: 1 2 3 4 5 6 7 8 9 10 11 12 13
000
FTUS43 KAPX 310520
TAFAPN
TAF
KAPN 310520Z 3106/0106 VRB03KT P6SM VCSH BKN040 OVC080
     FM311500 09005KT P6SM VCSH BKN050 OVC100
     FM311800 06008KT P6SM SCT040 BKN150
     FM010100 VRB03KT P6SM BKN100=

USA.gov is the U.S. government's official web portal to all federal, state and local government web resources and services.